Time;durP1;ratioP1;P1;durP2;ratioP2;P2;SDS_P1;SDS_P2;PMS_P1;PMS_P2;Temp;Humidity;BMP_temperature;BMP_pressure;BME280_temperature;BME280_humidity;BME280_pressure;Samples;Min_cycle;Max_cycle;Signal;HPM_P1;HPM_P2
2023/12/07 00:02:21;;;;;;;8.90;5.72;;;3.10;99.90;;;;;;5160293;28;20345;-42
2023/12/07 00:04:55;;;;;;;7.82;5.75;;;3.00;99.90;;;;;;5193896;28;20033;-38
2023/12/07 00:07:26;;;;;;;7.40;5.80;;;3.00;99.90;;;;;;5179462;28;20044;-39
2023/12/07 00:09:58;;;;;;;9.02;5.72;;;3.00;99.90;;;;;;5179421;28;20255;-38
2023/12/07 00:12:32;;;;;;;7.32;5.32;;;3.00;99.90;;;;;;5196355;28;20033;-38
2023/12/07 00:15:06;;;;;;;;;;;2.90;99.90;;;;;;5173889;28;20034;-38
2023/12/07 00:17:40;;;;;;;9.57;6.63;;;2.90;1.00;;;;;;5175555;28;20246;-38
2023/12/07 00:20:11;;;;;;;11.10;5.50;;;2.90;99.90;;;;;;5175357;28;20129;-38
2023/12/07 00:22:47;;;;;;;8.85;6.40;;;2.90;99.90;;;;;;5175650;28;20049;-37
2023/12/07 00:25:19;;;;;;;7.65;5.25;;;3.00;99.90;;;;;;5176148;28;20049;-37
2023/12/07 00:27:50;;;;;;;8.07;5.72;;;3.00;99.90;;;;;;5170569;28;20030;-38
2023/12/07 00:30:26;;;;;;;7.00;5.07;;;3.00;99.90;;;;;;5162241;28;20030;-37
2023/12/07 00:32:58;;;;;;;6.88;5.40;;;3.00;99.90;;;;;;5173916;28;20207;-37
2023/12/07 00:35:31;;;;;;;9.93;6.22;;;3.00;99.90;;;;;;5173195;28;20068;-37
2023/12/07 00:38:08;;;;;;;8.43;5.65;;;2.90;99.90;;;;;;5177744;28;20200;-37
2023/12/07 00:40:42;;;;;;;8.40;5.65;;;2.90;99.90;;;;;;5161503;28;20353;-37
2023/12/07 00:43:17;;;;;;;10.65;5.93;;;2.90;99.90;;;;;;5178555;28;20341;-37
2023/12/07 00:45:49;;;;;;;8.48;5.13;;;2.90;99.90;;;;;;5157555;28;20042;-37
2023/12/07 00:48:20;;;;;;;10.88;6.45;;;2.90;99.90;;;;;;5173448;28;20264;-37
2023/12/07 00:50:53;;;;;;;9.88;6.18;;;2.90;99.90;;;;;;5178480;28;20498;-36
2023/12/07 00:53:28;;;;;;;9.90;6.72;;;2.90;99.90;;;;;;5178070;28;20250;-36
2023/12/07 00:55:59;;;;;;;5.63;4.90;;;2.90;99.90;;;;;;5179196;28;20156;-36
2023/12/07 00:58:30;;;;;;;9.65;5.13;;;2.90;99.90;;;;;;5178216;28;20024;-36
2023/12/07 01:01:03;;;;;;;6.88;4.57;;;2.90;99.90;;;;;;5173959;28;20041;-36
2023/12/07 01:03:34;;;;;;;8.35;5.28;;;2.90;99.90;;;;;;5177523;28;20052;-36
2023/12/07 01:06:11;;;;;;;8.30;5.28;;;2.90;99.90;;;;;;5178717;28;20038;-36
2023/12/07 01:08:47;;;;;;;5.95;4.70;;;2.90;35.70;;;;;;5178905;28;20068;-35
2023/12/07 01:11:18;;;;;;;7.30;5.18;;;2.90;75.90;;;;;;5179099;28;20309;-36
2023/12/07 01:13:49;;;;;;;5.70;4.38;;;3.00;1.00;;;;;;5179816;28;20030;-36
2023/12/07 01:16:21;;;;;;;7.68;5.10;;;2.90;1.00;;;;;;5176918;28;20029;-35
2023/12/07 01:18:52;;;;;;;7.35;5.35;;;2.90;1.00;;;;;;5162159;28;20033;-35
2023/12/07 01:21:23;;;;;;;6.93;4.20;;;2.90;1.00;;;;;;5164306;28;20033;-35
2023/12/07 01:23:58;;;;;;;6.32;5.30;;;3.00;1.00;;;;;;5180148;28;20121;-35
2023/12/07 01:26:29;;;;;;;;;;;2.90;1.00;;;;;;5148237;28;20034;-35
2023/12/07 01:29:00;;;;;;;6.30;4.28;;;3.00;1.00;;;;;;5180699;28;19910;-35
2023/12/07 01:31:32;;;;;;;7.68;5.10;;;2.90;1.00;;;;;;5159027;28;20030;-36
2023/12/07 01:34:07;;;;;;;7.47;4.18;;;2.90;1.00;;;;;;5178418;28;20051;-36
2023/12/07 01:36:38;;;;;;;7.97;5.32;;;2.90;1.00;;;;;;5195027;28;20332;-35
2023/12/07 01:39:12;;;;;;;6.72;4.88;;;2.90;1.00;;;;;;5179485;28;20147;-36
2023/12/07 01:41:44;;;;;;;7.40;4.82;;;2.90;1.00;;;;;;5194836;28;20030;-36
2023/12/07 01:44:18;;;;;;;7.15;4.65;;;2.90;1.00;;;;;;5179086;28;20040;-35
2023/12/07 01:46:52;;;;;;;6.88;4.72;;;2.80;1.00;;;;;;5176548;28;20066;-35
2023/12/07 01:49:26;;;;;;;8.05;5.55;;;2.90;1.00;;;;;;5179056;28;20049;-35
2023/12/07 01:51:59;;;;;;;7.43;5.30;;;2.80;9.80;;;;;;5180065;28;20067;-35
2023/12/07 01:54:34;;;;;;;7.35;4.28;;;2.80;95.80;;;;;;5179874;28;20026;-35
2023/12/07 01:57:05;;;;;;;;;;;2.80;21.10;;;;;;5179396;28;20029;-36
2023/12/07 01:59:38;;;;;;;8.55;5.97;;;2.80;35.80;;;;;;5178530;28;19981;-35
2023/12/07 02:02:09;;;;;;;9.07;5.53;;;2.80;95.20;;;;;;5176405;28;20330;-36
2023/12/07 02:04:44;;;;;;;8.48;5.15;;;2.80;37.20;;;;;;5160979;28;20041;-35
2023/12/07 02:07:15;;;;;;;;;;;2.80;52.20;;;;;;5177424;28;20048;-35
2023/12/07 02:09:49;;;;;;;8.95;5.45;;;2.80;57.30;;;;;;5178687;28;19909;-35
2023/12/07 02:12:30;;;;;;;5.90;4.53;;;2.80;1.00;;;;;;5179628;28;20302;-35
2023/12/07 02:15:04;;;;;;;7.90;6.22;;;2.80;4.60;;;;;;5179174;28;20497;-35
2023/12/07 02:18:07;;;;;;;10.35;6.65;;;2.80;99.40;;;;;;5177188;28;20028;-35
2023/12/07 02:20:47;;;;;;;9.02;5.18;;;2.80;65.80;;;;;;5177085;28;20108;-35
2023/12/07 02:23:21;;;;;;;9.02;6.47;;;2.80;99.90;;;;;;5158417;28;20314;-35
2023/12/07 02:26:29;;;;;;;7.50;4.70;;;2.70;99.90;;;;;;5176898;28;20229;-35
2023/12/07 02:29:05;;;;;;;10.25;6.35;;;2.70;99.90;;;;;;5179087;28;20028;-35
2023/12/07 02:31:40;;;;;;;9.38;6.88;;;2.70;99.90;;;;;;5158126;28;20052;-35
2023/12/07 02:34:17;;;;;;;9.00;6.03;;;2.70;99.90;;;;;;5177764;28;20388;-35
2023/12/07 02:36:50;;;;;;;9.57;6.30;;;2.70;99.90;;;;;;5176571;28;20167;-35
2023/12/07 02:39:28;;;;;;;11.47;6.77;;;2.70;99.90;;;;;;5175796;28;20195;-35
2023/12/07 02:42:02;;;;;;;11.85;6.75;;;2.70;1.00;;;;;;5176175;28;20030;-34
2023/12/07 02:44:34;;;;;;;10.57;6.95;;;2.60;1.00;;;;;;5175925;28;20379;-34
2023/12/07 02:47:08;;;;;;;10.38;6.88;;;2.60;1.00;;;;;;5155000;28;20218;-34
2023/12/07 02:49:39;;;;;;;10.73;6.97;;;2.60;1.00;;;;;;5189802;28;20490;-34
2023/12/07 02:52:14;;;;;;;9.70;6.22;;;2.60;1.00;;;;;;5171000;28;20048;-35
2023/12/07 02:54:45;;;;;;;11.82;6.90;;;2.60;1.00;;;;;;5173659;28;20338;-35
2023/12/07 02:57:23;;;;;;;12.20;7.65;;;2.50;1.00;;;;;;5175080;28;20534;-35
2023/12/07 02:59:55;;;;;;;10.82;7.10;;;2.60;1.00;;;;;;5171585;28;20022;-35
2023/12/07 03:02:27;;;;;;;8.98;6.72;;;2.60;1.00;;;;;;5171569;28;20033;-35
2023/12/07 03:04:58;;;;;;;9.63;5.20;;;2.60;1.00;;;;;;5173665;28;20045;-35
2023/12/07 03:07:32;;;;;;;11.63;7.30;;;2.60;1.00;;;;;;5174827;28;20226;-35
2023/12/07 03:10:09;;;;;;;10.20;6.18;;;2.60;1.00;;;;;;5174781;28;20033;-35
2023/12/07 03:12:41;;;;;;;9.32;6.60;;;2.60;1.00;;;;;;5175208;28;20299;-35
2023/12/07 03:15:13;;;;;;;10.48;6.55;;;2.60;1.00;;;;;;5171681;28;20017;-35
2023/12/07 03:17:44;;;;;;;10.07;6.07;;;2.50;1.00;;;;;;5174494;28;20052;-35
2023/12/07 03:20:16;;;;;;;10.32;6.13;;;2.60;1.00;;;;;;5157238;28;20038;-35
2023/12/07 03:22:53;;;;;;;10.48;7.28;;;2.60;1.00;;;;;;5157243;28;20318;-35
2023/12/07 03:25:30;;;;;;;12.65;6.80;;;2.60;99.90;;;;;;5156643;28;20038;-35
2023/12/07 03:28:04;;;;;;;9.70;6.07;;;2.60;99.90;;;;;;5175096;28;20034;-35
2023/12/07 03:30:38;;;;;;;11.63;7.15;;;2.60;99.90;;;;;;5154874;28;20208;-35
2023/12/07 03:33:09;;;;;;;10.70;6.75;;;2.60;99.90;;;;;;5158628;28;20064;-35
2023/12/07 03:35:41;;;;;;;9.65;5.95;;;2.60;99.90;;;;;;5175433;28;20060;-35
2023/12/07 03:38:12;;;;;;;10.13;5.38;;;2.60;99.90;;;;;;5158000;28;20052;-35
2023/12/07 03:40:47;;;;;;;9.23;6.65;;;2.60;99.90;;;;;;5175152;28;20379;-35
2023/12/07 03:43:20;;;;;;;10.15;6.40;;;2.60;99.90;;;;;;5177601;28;20046;-35
2023/12/07 03:45:52;;;;;;;7.88;5.35;;;2.70;99.90;;;;;;5174299;28;20041;-35
2023/12/07 03:48:23;;;;;;;8.35;5.32;;;2.70;99.90;;;;;;5177736;28;20051;-35
2023/12/07 03:50:57;;;;;;;8.43;5.20;;;2.70;99.90;;;;;;5144261;28;20037;-35
2023/12/07 03:53:28;;;;;;;8.30;6.38;;;2.60;99.90;;;;;;5175167;28;20041;-35
2023/12/07 03:55:59;;;;;;;11.35;6.20;;;2.60;99.90;;;;;;5158453;28;20450;-35
2023/12/07 03:58:34;;;;;;;9.25;5.57;;;2.70;99.90;;;;;;5176393;28;20425;-35
2023/12/07 04:01:05;;;;;;;10.90;6.72;;;2.70;99.90;;;;;;5173910;28;20029;-35
2023/12/07 04:03:43;;;;;;;8.07;4.88;;;2.70;99.90;;;;;;5156698;28;20023;-35
2023/12/07 04:06:18;;;;;;;8.90;5.05;;;2.70;99.90;;;;;;5155007;28;20413;-35
2023/12/07 04:08:49;;;;;;;9.40;6.15;;;2.80;63.00;;;;;;5157190;28;20094;-35
2023/12/07 04:11:21;;;;;;;8.52;5.70;;;2.80;99.90;;;;;;5169095;28;20026;-35
2023/12/07 04:13:58;;;;;;;11.52;6.47;;;2.70;86.50;;;;;;5175218;28;20363;-35
2023/12/07 04:16:29;;;;;;;11.20;5.93;;;2.70;99.90;;;;;;5172751;28;20022;-35
2023/12/07 04:19:03;;;;;;;10.73;6.70;;;2.70;99.90;;;;;;5176164;28;20022;-35
2023/12/07 04:21:38;;;;;;;8.38;5.88;;;2.80;49.80;;;;;;5177570;28;20104;-35
2023/12/07 04:24:11;;;;;;;;;;;2.80;93.30;;;;;;5176511;28;20049;-36
2023/12/07 04:26:42;;;;;;;8.07;5.32;;;2.80;49.30;;;;;;5175098;28;19909;-35
2023/12/07 04:29:19;;;;;;;11.43;7.32;;;2.70;86.40;;;;;;5174606;28;20026;-36
2023/12/07 04:31:52;;;;;;;9.32;5.43;;;2.80;10.00;;;;;;5173597;28;20037;-36
2023/12/07 04:34:24;;;;;;;9.50;5.72;;;2.80;8.70;;;;;;5160059;28;20042;-36
2023/12/07 04:36:57;;;;;;;10.23;6.15;;;2.80;98.00;;;;;;5159015;28;20018;-36
2023/12/07 04:39:28;;;;;;;10.48;6.47;;;2.80;99.90;;;;;;5158454;28;20025;-36
2023/12/07 04:42:00;;;;;;;7.03;4.60;;;2.70;99.90;;;;;;5158886;28;20037;-35
2023/12/07 04:44:31;;;;;;;10.40;6.95;;;2.70;99.90;;;;;;5158801;28;20037;-35
2023/12/07 04:47:02;;;;;;;12.20;7.53;;;2.80;99.90;;;;;;5173988;28;20352;-35
2023/12/07 04:49:38;;;;;;;10.70;6.43;;;2.70;99.90;;;;;;5175159;28;20030;-35
2023/12/07 04:52:13;;;;;;;9.13;6.10;;;2.70;99.90;;;;;;5160093;28;20038;-35
2023/12/07 04:54:44;;;;;;;8.93;6.00;;;2.70;99.90;;;;;;5144143;28;20034;-35
2023/12/07 04:57:16;;;;;;;12.75;8.02;;;2.70;99.90;;;;;;5176995;28;20407;-36
2023/12/07 04:59:52;;;;;;;13.32;5.78;;;2.70;99.90;;;;;;5176265;28;20030;-37
2023/12/07 05:02:27;;;;;;;11.00;7.22;;;2.70;99.90;;;;;;5160570;28;20038;-36
2023/12/07 05:05:05;;;;;;;12.73;7.75;;;2.70;99.90;;;;;;5155283;28;20526;-36
2023/12/07 05:07:36;;;;;;;12.00;7.40;;;2.70;99.90;;;;;;5154419;28;20027;-36
2023/12/07 05:10:10;;;;;;;12.82;8.02;;;2.70;99.90;;;;;;5169348;28;20040;-36
2023/12/07 05:12:41;;;;;;;12.05;7.47;;;2.70;99.90;;;;;;5138357;28;20061;-36
2023/12/07 05:15:18;;;;;;;12.50;7.18;;;2.70;99.90;;;;;;5153477;28;20040;-36
2023/12/07 05:17:49;;;;;;;11.10;6.38;;;2.70;99.90;;;;;;5138555;28;20054;-36
2023/12/07 05:20:28;;;;;;;11.45;6.90;;;2.70;99.90;;;;;;5141335;28;20022;-37
2023/12/07 05:23:01;;;;;;;13.07;7.47;;;2.70;99.90;;;;;;5176241;28;20345;-36
2023/12/07 05:25:33;;;;;;;;;;;2.70;99.90;;;;;;5179527;28;20475;-36
2023/12/07 05:28:08;;;;;;;8.65;5.57;;;2.70;99.90;;;;;;5180405;28;19910;-36
2023/12/07 05:30:39;;;;;;;11.63;6.10;;;2.70;99.90;;;;;;5159151;28;20036;-37
2023/12/07 05:33:21;;;;;;;10.25;5.85;;;2.70;99.90;;;;;;5179609;28;20025;-34
2023/12/07 05:35:58;;;;;;;11.13;6.80;;;2.70;13.50;;;;;;5178823;28;20652;-35
2023/12/07 05:38:29;;;;;;;9.40;6.15;;;2.70;8.50;;;;;;5179839;28;20029;-35
2023/12/07 05:41:00;;;;;;;11.63;6.10;;;2.70;1.00;;;;;;5180768;28;20226;-35
2023/12/07 05:43:39;;;;;;;9.32;6.90;;;2.70;1.00;;;;;;5162126;28;20094;-34
2023/12/07 05:46:10;;;;;;;10.05;6.53;;;2.70;24.00;;;;;;5177435;28;20037;-34
2023/12/07 05:48:42;;;;;;;12.07;7.20;;;2.70;1.00;;;;;;5179843;28;20096;-36
2023/12/07 05:51:20;;;;;;;9.27;5.65;;;2.70;1.00;;;;;;5180617;28;20030;-35
2023/12/07 05:53:54;;;;;;;11.50;6.32;;;2.70;1.00;;;;;;5162093;28;20021;-37
2023/12/07 05:56:25;;;;;;;10.35;6.70;;;2.70;1.00;;;;;;5177500;28;20549;-37
2023/12/07 05:58:57;;;;;;;9.30;5.72;;;2.70;1.00;;;;;;5179178;28;20331;-34
2023/12/07 06:01:30;;;;;;;12.85;7.20;;;2.80;1.00;;;;;;5172848;28;20662;-34
2023/12/07 06:04:01;;;;;;;9.57;6.38;;;2.80;1.00;;;;;;5189479;28;20025;-36
2023/12/07 06:06:32;;;;;;;11.10;7.45;;;2.80;1.00;;;;;;5202760;28;20056;-34
2023/12/07 06:09:05;;;;;;;8.73;5.47;;;2.80;1.00;;;;;;5195100;28;20060;-37
2023/12/07 06:11:36;;;;;;;10.27;6.60;;;2.70;1.00;;;;;;5169340;28;20021;-36
2023/12/07 06:14:08;;;;;;;8.93;5.82;;;2.80;1.00;;;;;;5163391;28;20028;-34
2023/12/07 06:16:41;;;;;;;11.77;7.28;;;2.80;1.00;;;;;;5172629;28;20026;-36
2023/12/07 06:19:13;;;;;;;11.75;7.28;;;2.80;1.00;;;;;;5170927;28;20061;-37
2023/12/07 06:21:47;;;;;;;11.27;6.80;;;2.80;1.00;;;;;;5160529;28;20029;-34
2023/12/07 06:24:24;;;;;;;10.65;6.22;;;2.80;1.00;;;;;;5175453;28;20530;-36
2023/12/07 06:26:55;;;;;;;10.30;6.50;;;2.80;1.00;;;;;;5158277;28;20048;-36
2023/12/07 06:29:31;;;;;;;12.85;7.32;;;2.80;1.00;;;;;;5177215;28;20149;-34
2023/12/07 06:32:03;;;;;;;10.18;6.97;;;2.80;1.00;;;;;;5173519;28;20042;-35
2023/12/07 06:34:40;;;;;;;9.38;5.88;;;2.80;1.00;;;;;;5187220;28;20074;-35
2023/12/07 06:37:14;;;;;;;8.43;5.72;;;2.80;1.00;;;;;;5175216;28;20038;-35
2023/12/07 06:39:45;;;;;;;11.27;7.07;;;2.80;1.00;;;;;;5184036;28;20056;-36
2023/12/07 06:42:16;;;;;;;11.02;6.22;;;2.80;1.00;;;;;;5186175;28;20034;-35
2023/12/07 06:44:50;;;;;;;10.80;6.63;;;2.80;1.00;;;;;;5197422;28;20044;-35
2023/12/07 06:47:24;;;;;;;12.77;7.28;;;2.80;1.00;;;;;;5194531;28;20322;-34
2023/12/07 06:50:03;;;;;;;14.60;7.55;;;2.80;1.00;;;;;;5198298;28;20045;-35
2023/12/07 06:52:39;;;;;;;11.85;7.50;;;2.70;1.00;;;;;;5197755;28;20037;-35
2023/12/07 06:55:11;;;;;;;11.55;7.07;;;2.80;1.00;;;;;;5183254;28;20141;-35
2023/12/07 06:57:45;;;;;;;10.88;6.55;;;2.80;1.00;;;;;;5200794;28;20118;-35
2023/12/07 07:00:18;;;;;;;10.68;6.63;;;2.80;1.00;;;;;;5168348;28;20048;-35
2023/12/07 07:02:49;;;;;;;9.77;6.10;;;2.80;1.00;;;;;;5194651;28;20033;-35
2023/12/07 07:05:20;;;;;;;13.27;7.88;;;2.80;1.00;;;;;;5198515;28;20034;-37
2023/12/07 07:07:56;;;;;;;11.07;7.00;;;2.80;1.00;;;;;;5171497;28;20042;-34
2023/12/07 07:10:32;;;;;;;9.63;6.75;;;2.80;1.00;;;;;;5186244;28;20036;-35
2023/12/07 07:13:06;;;;;;;9.40;6.25;;;2.80;1.00;;;;;;5191509;28;20321;-37
2023/12/07 07:15:37;;;;;;;11.95;6.85;;;2.90;1.00;;;;;;5175493;28;20025;-37
2023/12/07 07:18:08;;;;;;;12.50;6.47;;;2.80;1.00;;;;;;5195723;28;20201;-34
2023/12/07 07:20:44;;;;;;;10.73;7.03;;;2.80;1.00;;;;;;5191838;28;20364;-34
2023/12/07 07:23:21;;;;;;;9.23;5.72;;;2.90;1.00;;;;;;5196215;28;20217;-35
2023/12/07 07:25:52;;;;;;;9.70;5.93;;;2.90;1.00;;;;;;5178955;28;20127;-37
2023/12/07 07:28:26;;;;;;;10.32;6.25;;;2.90;1.00;;;;;;5197134;28;20056;-35
2023/12/07 07:30:59;;;;;;;12.70;6.88;;;2.80;1.00;;;;;;5186054;28;20044;-35
2023/12/07 07:33:30;;;;;;;12.90;7.43;;;2.90;1.00;;;;;;5186668;28;20037;-35
2023/12/07 07:36:02;;;;;;;10.27;6.13;;;2.90;1.00;;;;;;5178066;28;20033;-35
2023/12/07 07:38:33;;;;;;;11.90;7.18;;;2.90;1.00;;;;;;5165371;28;20373;-35
2023/12/07 07:41:06;;;;;;;10.65;6.53;;;2.90;1.00;;;;;;5191227;28;20315;-35
2023/12/07 07:43:41;;;;;;;14.73;6.55;;;2.80;1.00;;;;;;5193349;28;20313;-35
2023/12/07 07:46:15;;;;;;;12.48;7.75;;;2.90;1.00;;;;;;5192179;28;20283;-35
2023/12/07 07:48:48;;;;;;;12.68;6.93;;;2.80;1.00;;;;;;5195670;28;20044;-35
2023/12/07 07:51:24;;;;;;;10.27;6.60;;;2.80;1.00;;;;;;5196088;28;20295;-35
2023/12/07 07:53:56;;;;;;;11.07;7.38;;;2.80;1.00;;;;;;5194540;28;20281;-35
2023/12/07 07:56:27;;;;;;;12.10;7.05;;;2.80;1.00;;;;;;5194182;28;20026;-35
2023/12/07 07:59:00;;;;;;;11.90;7.47;;;2.80;1.00;;;;;;5160221;28;20049;-35
2023/12/07 08:01:36;;;;;;;11.32;6.88;;;2.80;1.00;;;;;;5183840;28;20025;-35
2023/12/07 08:04:07;;;;;;;13.20;7.40;;;2.80;1.00;;;;;;5186231;28;20113;-34
2023/12/07 08:06:39;;;;;;;11.40;7.85;;;2.80;1.00;;;;;;5175850;28;20045;-35
2023/12/07 08:09:10;;;;;;;13.15;7.35;;;2.80;1.00;;;;;;5180284;28;20317;-35
2023/12/07 08:11:43;;;;;;;11.10;6.70;;;2.80;1.00;;;;;;5196389;28;20033;-35
2023/12/07 08:14:15;;;;;;;10.82;6.78;;;2.80;1.00;;;;;;5194177;28;20047;-35
2023/12/07 08:16:46;;;;;;;14.18;7.80;;;2.80;1.00;;;;;;5189044;28;20025;-35
2023/12/07 08:19:17;;;;;;;13.30;7.22;;;2.90;1.00;;;;;;5192243;28;20063;-35
2023/12/07 08:21:51;;;;;;;12.80;7.93;;;2.90;1.00;;;;;;5193912;28;20032;-35
2023/12/07 08:24:30;;;;;;;10.07;7.57;;;2.90;1.00;;;;;;5179699;28;20083;-35
2023/12/07 08:27:03;;;;;;;11.75;7.07;;;2.90;1.00;;;;;;5197133;28;20377;-35
2023/12/07 08:29:35;;;;;;;13.02;7.10;;;3.00;1.00;;;;;;5188116;28;20056;-35
2023/12/07 08:32:12;;;;;;;12.27;7.00;;;3.00;1.00;;;;;;5189657;28;20039;-36
2023/12/07 08:34:44;;;;;;;13.90;6.97;;;3.00;1.00;;;;;;5186642;28;20045;-35
2023/12/07 08:37:15;;;;;;;12.15;6.97;;;3.00;1.00;;;;;;5194401;28;20021;-35
2023/12/07 08:39:52;;;;;;;17.58;9.20;;;3.00;1.00;;;;;;5185482;28;20293;-35
2023/12/07 08:42:26;;;;;;;12.63;7.35;;;3.10;1.00;;;;;;5196220;28;20371;-35
2023/12/07 08:44:58;;;;;;;13.40;7.55;;;3.10;1.00;;;;;;5196122;28;20053;-35
2023/12/07 08:47:30;;;;;;;13.82;8.23;;;3.10;1.00;;;;;;5160204;28;20074;-35
2023/12/07 08:50:01;;;;;;;11.10;6.43;;;3.20;1.00;;;;;;5190127;28;20068;-36
2023/12/07 08:52:35;;;;;;;11.80;7.38;;;3.20;99.90;;;;;;5198249;28;20280;-35
2023/12/07 08:55:06;;;;;;;12.95;7.65;;;3.30;99.90;;;;;;5184311;28;20065;-35
2023/12/07 08:57:38;;;;;;;15.95;7.20;;;3.30;99.90;;;;;;5176685;28;20329;-35
2023/12/07 09:00:12;;;;;;;15.07;7.38;;;3.30;99.90;;;;;;5186761;28;20338;-35
2023/12/07 09:02:49;;;;;;;12.93;7.63;;;3.30;99.90;;;;;;5198872;28;20047;-36
2023/12/07 09:05:23;;;;;;;12.52;7.18;;;3.40;99.90;;;;;;5178376;28;20046;-35
2023/12/07 09:07:56;;;;;;;8.65;6.10;;;3.40;99.90;;;;;;5190126;28;20557;-36
2023/12/07 09:10:28;;;;;;;13.00;7.20;;;3.40;99.90;;;;;;5185306;28;20321;-35
2023/12/07 09:12:59;;;;;;;10.07;6.55;;;3.40;99.90;;;;;;5197995;28;20345;-35
2023/12/07 09:15:37;;;;;;;10.27;6.55;;;3.30;99.90;;;;;;5188355;28;20140;-35
2023/12/07 09:18:15;;;;;;;12.55;6.38;;;3.40;99.90;;;;;;5198718;28;20572;-36
2023/12/07 09:20:49;;;;;;;12.90;7.30;;;3.40;99.90;;;;;;5195913;28;20041;-36
2023/12/07 09:23:20;;;;;;;12.82;7.22;;;3.40;99.90;;;;;;5202604;28;20032;-36
2023/12/07 09:25:54;;;;;;;9.88;6.97;;;3.50;99.90;;;;;;5193147;28;20045;-36
2023/12/07 09:28:26;;;;;;;;;;;3.40;99.90;;;;;;5198194;28;20215;-36
2023/12/07 09:31:02;;;;;;;10.45;5.75;;;3.40;99.90;;;;;;5184817;28;20130;-35
2023/12/07 09:33:35;;;;;;;10.02;6.40;;;3.40;99.90;;;;;;5202394;28;20348;-35
2023/12/07 09:36:11;;;;;;;14.85;6.15;;;3.40;99.90;;;;;;5156094;28;20049;-35
2023/12/07 09:38:42;;;;;;;11.18;7.40;;;3.40;99.90;;;;;;5180190;28;20043;-35
2023/12/07 09:41:16;;;;;;;12.10;7.30;;;3.50;99.90;;;;;;5188211;28;20049;-35
2023/12/07 09:43:47;;;;;;;10.55;6.40;;;3.60;99.90;;;;;;5182128;28;20044;-35
2023/12/07 09:46:19;;;;;;;9.02;6.45;;;3.80;99.90;;;;;;5188402;28;20515;-35
2023/12/07 09:48:50;;;;;;;9.70;6.10;;;4.00;1.00;;;;;;5180709;28;20067;-35
2023/12/07 09:51:26;;;;;;;12.57;6.50;;;4.10;1.00;;;;;;5187510;28;20037;-35
2023/12/07 09:53:58;;;;;;;10.63;6.97;;;4.50;1.00;;;;;;5192689;28;20331;-36
2023/12/07 09:56:30;;;;;;;10.57;6.45;;;4.80;1.00;;;;;;5187182;28;20054;-35
2023/12/07 09:59:04;;;;;;;11.48;6.53;;;4.70;1.00;;;;;;5186789;28;20171;-35
2023/12/07 10:01:35;;;;;;;10.75;6.68;;;5.00;1.00;;;;;;5179823;28;20238;-36
2023/12/07 10:04:19;;;;;;;11.00;6.63;;;5.00;1.00;;;;;;5178940;28;20045;-35
2023/12/07 10:06:50;;;;;;;8.75;6.15;;;4.80;1.00;;;;;;5196983;28;20091;-35
2023/12/07 10:09:22;;;;;;;10.55;6.68;;;4.80;1.00;;;;;;5174903;28;20349;-35
2023/12/07 10:12:07;;;;;;;11.32;6.50;;;4.80;1.00;;;;;;5192645;28;20258;-35
2023/12/07 10:14:41;;;;;;;12.90;7.05;;;4.90;1.00;;;;;;5166422;28;20376;-35
2023/12/07 10:17:14;;;;;;;9.77;6.63;;;5.20;1.00;;;;;;5146522;28;20041;-34
2023/12/07 10:19:45;;;;;;;11.40;6.53;;;5.10;1.00;;;;;;5149909;28;20042;-34
2023/12/07 10:22:17;;;;;;;9.10;6.07;;;5.50;1.00;;;;;;5148717;28;20253;-35
2023/12/07 10:24:56;;;;;;;12.05;6.70;;;5.80;1.00;;;;;;5163265;28;20056;-35
2023/12/07 10:27:30;;;;;;;8.80;5.70;;;5.80;1.00;;;;;;5165233;28;20045;-34
2023/12/07 10:30:01;;;;;;;10.80;6.55;;;5.80;1.00;;;;;;5164334;28;20058;-37
2023/12/07 10:32:39;;;;;;;12.73;6.28;;;5.70;1.00;;;;;;5160856;28;20060;-37
2023/12/07 10:35:11;;;;;;;8.95;6.38;;;5.90;1.00;;;;;;5166028;28;20379;-35
2023/12/07 10:37:42;;;;;;;9.98;5.72;;;5.70;1.00;;;;;;5165796;28;20387;-35
2023/12/07 10:40:14;;;;;;;9.20;6.40;;;5.30;99.90;;;;;;5166567;28;20053;-35
2023/12/07 10:42:48;;;;;;;8.48;6.28;;;5.40;99.90;;;;;;5166380;28;20209;-35
2023/12/07 10:45:21;;;;;;;11.40;6.03;;;5.80;99.90;;;;;;5129858;28;20097;-37
2023/12/07 10:47:58;;;;;;;8.82;5.78;;;5.80;99.90;;;;;;5168520;28;20466;-35
2023/12/07 10:50:34;;;;;;;11.05;6.90;;;5.60;99.90;;;;;;5166113;28;20053;-34
2023/12/07 10:53:19;;;;;;;13.30;5.63;;;6.00;99.90;;;;;;5165475;28;20295;-35
2023/12/07 10:56:02;;;;;;;;;;;6.40;99.90;;;;;;5167079;28;20349;-35
2023/12/07 10:58:36;;;;;;;9.55;5.72;;;6.60;99.90;;;;;;5164664;28;19928;-34
2023/12/07 11:01:11;;;;;;;10.15;5.90;;;6.00;99.90;;;;;;5138157;28;20050;-36
2023/12/07 11:03:44;;;;;;;9.13;6.03;;;6.10;99.90;;;;;;5168193;28;20290;-36
2023/12/07 11:06:18;;;;;;;11.68;6.35;;;6.60;99.90;;;;;;5149982;28;20215;-36
2023/12/07 11:08:55;;;;;;;;;;;7.20;99.90;;;;;;5160504;28;20256;-35
2023/12/07 11:11:54;;;;;;;9.63;6.15;;;7.00;99.90;;;;;;5176128;28;19940;-36
2023/12/07 11:14:26;;;;;;;10.20;6.55;;;6.80;99.90;;;;;;5194750;28;20052;-36
2023/12/07 11:16:58;;;;;;;11.70;7.00;;;6.90;99.90;;;;;;5182859;28;20316;-36
2023/12/07 11:19:32;;;;;;;10.30;6.68;;;7.30;99.90;;;;;;5180176;28;20080;-36
2023/12/07 11:22:09;;;;;;;14.50;7.15;;;7.20;99.90;;;;;;5185278;28;20049;-36
2023/12/07 11:25:02;;;;;;;10.57;6.15;;;7.10;99.90;;;;;;5173266;28;20050;-35
2023/12/07 11:27:34;;;;;;;9.43;6.45;;;6.60;46.30;;;;;;5168896;28;20042;-35
2023/12/07 11:30:08;;;;;;;12.40;7.18;;;6.30;41.10;;;;;;5177830;28;20057;-36
2023/12/07 11:32:39;;;;;;;;;;;7.00;98.30;;;;;;5177090;28;20049;-36
2023/12/07 11:35:12;;;;;;;11.02;6.25;;;7.30;99.90;;;;;;5178068;28;19913;-36
2023/12/07 11:38:06;;;;;;;10.30;5.57;;;7.70;99.90;;;;;;5183185;28;20059;-35
2023/12/07 11:40:44;;;;;;;9.73;6.85;;;7.70;91.80;;;;;;5201519;28;20310;-36
2023/12/07 11:43:39;;;;;;;10.10;6.45;;;7.20;11.70;;;;;;5190808;28;20059;-36
2023/12/07 11:46:15;;;;;;;10.82;7.05;;;7.20;30.50;;;;;;5143951;28;20315;-36
2023/12/07 11:48:49;;;;;;;11.63;6.22;;;6.80;1.00;;;;;;5184459;28;20349;-36
2023/12/07 11:51:23;;;;;;;8.32;5.95;;;7.30;72.40;;;;;;5168067;28;20485;-36
2023/12/07 11:53:54;;;;;;;;;;;7.30;53.00;;;;;;5162731;28;20045;-35
2023/12/07 11:56:26;;;;;;;11.23;6.63;;;7.10;46.20;;;;;;5181665;28;20105;-35
2023/12/07 11:58:59;;;;;;;11.32;6.72;;;7.20;58.30;;;;;;5198691;28;20111;-35
2023/12/07 12:01:30;;;;;;;10.10;6.70;;;7.50;99.90;;;;;;5194834;28;20048;-35
2023/12/07 12:04:04;;;;;;;8.35;5.10;;;7.50;65.90;;;;;;5198011;28;20216;-35
2023/12/07 12:06:39;;;;;;;9.80;6.47;;;7.10;12.20;;;;;;5198501;28;20372;-36
2023/12/07 12:09:17;;;;;;;11.73;6.65;;;6.90;1.00;;;;;;5194715;28;20048;-36
2023/12/07 12:11:52;;;;;;;12.63;6.82;;;6.90;1.00;;;;;;5181416;28;21183;-36
2023/12/07 12:14:23;;;;;;;9.27;6.25;;;6.80;37.20;;;;;;5193728;28;20507;-35
2023/12/07 12:16:55;;;;;;;8.90;5.85;;;6.60;1.00;;;;;;5196845;28;20312;-36
2023/12/07 12:19:30;;;;;;;9.18;6.03;;;6.40;1.00;;;;;;5160912;28;20054;-36
2023/12/07 12:22:02;;;;;;;11.57;7.50;;;6.30;1.00;;;;;;5195498;28;20075;-36
2023/12/07 12:24:37;;;;;;;8.40;5.63;;;6.50;1.00;;;;;;5196963;28;20038;-36
2023/12/07 12:27:10;;;;;;;11.25;6.60;;;7.00;49.50;;;;;;5196884;28;20303;-36
2023/12/07 12:29:42;;;;;;;8.88;6.07;;;7.50;99.50;;;;;;5164976;28;20050;-36
2023/12/07 12:32:13;;;;;;;11.38;6.50;;;7.50;1.60;;;;;;5163913;28;20057;-36
2023/12/07 12:34:53;;;;;;;10.25;6.95;;;8.00;1.00;;;;;;5169796;28;20377;-36
2023/12/07 12:37:25;;;;;;;11.32;6.63;;;7.70;1.00;;;;;;5199772;28;20276;-36
2023/12/07 12:40:00;;;;;;;11.15;6.38;;;7.80;1.00;;;;;;5171180;28;20232;-36
2023/12/07 12:42:33;;;;;;;10.23;6.60;;;7.90;1.00;;;;;;5185080;28;20041;-36
2023/12/07 12:45:08;;;;;;;9.88;6.50;;;8.50;1.00;;;;;;5196263;28;20399;-36
2023/12/07 12:47:44;;;;;;;10.43;6.40;;;8.30;1.00;;;;;;5155829;28;20272;-35
2023/12/07 12:50:38;;;;;;;10.07;6.13;;;8.10;1.00;;;;;;5196108;28;20303;-36
2023/12/07 12:53:10;;;;;;;12.95;6.57;;;8.10;1.00;;;;;;5181095;28;20037;-36
2023/12/07 12:55:42;;;;;;;11.38;6.05;;;8.30;1.00;;;;;;5198799;28;20039;-36
2023/12/07 12:58:16;;;;;;;10.90;6.95;;;7.80;1.00;;;;;;5198780;28;20036;-36
2023/12/07 13:00:48;;;;;;;11.13;6.82;;;7.90;1.00;;;;;;5180803;28;20391;-36
2023/12/07 13:03:19;;;;;;;10.70;7.10;;;8.00;1.00;;;;;;5196317;28;20427;-36
2023/12/07 13:05:50;;;;;;;11.63;6.57;;;7.50;1.00;;;;;;5168534;28;20246;-35
2023/12/07 13:08:22;;;;;;;12.27;6.95;;;7.80;1.00;;;;;;5199844;28;20352;-35
2023/12/07 13:10:53;;;;;;;10.50;6.55;;;7.90;1.00;;;;;;5202995;28;20056;-35
2023/12/07 13:13:25;;;;;;;13.38;7.30;;;7.80;1.00;;;;;;5167452;28;20310;-36
2023/12/07 13:15:56;;;;;;;10.40;7.20;;;7.10;1.00;;;;;;5182782;28;20048;-36
2023/12/07 13:18:27;;;;;;;11.52;7.45;;;6.70;1.00;;;;;;5201220;28;20045;-35
2023/12/07 13:20:59;;;;;;;10.55;7.00;;;6.60;1.00;;;;;;5198634;28;20321;-36
2023/12/07 13:23:33;;;;;;;13.40;8.02;;;6.60;1.00;;;;;;5193981;28;20160;-36
2023/12/07 13:26:06;;;;;;;12.63;7.72;;;6.30;1.00;;;;;;5197754;28;20378;-35
2023/12/07 13:28:37;;;;;;;11.88;7.80;;;6.10;1.00;;;;;;5201758;28;20092;-36
2023/12/07 13:31:11;;;;;;;11.48;6.93;;;6.10;1.00;;;;;;5193517;28;20401;-35
2023/12/07 13:33:45;;;;;;;15.57;7.75;;;5.80;1.00;;;;;;5191086;28;20143;-37
2023/12/07 13:36:20;;;;;;;12.13;7.18;;;5.90;1.00;;;;;;5194381;28;20328;-37